16°C
Gosport, Hampshire, United Kingdom
Language:  English
Updated28/05/2020 22:35:00 
 

Nearby METAR Reports

 

EGHI - Southampton Wx Centre, United Kingdom
Distance from station: NW 15mi, 24km
Updated: 28-May-2020 14:20:00
NOT Current
Few Clouds
Few Clouds
 Wind from ENE
Wind: ENE 6 mph , 9 km/h
Temperature: 21°C
Dew Point: 7°C
Humidity: 40%
Barometer: 1032 hPa
Clouds: Few Clouds
Visibility: 6 miles , 10 km
Cloud details: Few Clouds 1372 m
2020/05/28 13:20 EGHI 281320Z 07005KT 360V130 9999 FEW045 21/07 Q1032
EGHH - Bournemouth Airport, United Kingdom
Distance from station: W 30mi, 49km
Updated: 28-May-2020 17:50:00
NOT Current
Clear
Clear
 Wind from SSE
Wind: SSE 12 mph , 19 km/h
Temperature: 20°C
Dew Point: 6°C
Humidity: 40%
Barometer: 1029 hPa
Summary: Clear
Visibility: greater than 7 miles , 10 km
2020/05/28 16:50 EGHH 281650Z 16010KT CAVOK 20/06 Q1029
EGVP - Middle Wallop Airfield, United Kingdom
Distance from station: NW 31mi, 49km
Updated: 28-May-2020 21:50:00
Clear
Clear
 Wind from E
Wind: E 9 mph , 15 km/h
Temperature: 15°C
Dew Point: 3°C
Humidity: 45%
Barometer: 1030 hPa
Clouds: Clear
Visibility: 6 miles , 10 km
2020/05/28 20:50 EGVP 282050Z AUTO 08008KT 9999 NCD 15/03 Q1030
 
EGVO - RAF Odiham, United Kingdom
Distance from station: NNE 32mi, 52km
Updated: 28-May-2020 22:23:00
Clear
Clear
 Wind from ENE
Wind: ENE 10 mph , 17 km/h
Temperature: 14°C
Dew Point: 3°C
Humidity: 48%
Barometer: 1030 hPa
Summary: Clear
Visibility: greater than 7 miles , 10 km
2020/05/28 21:23 EGVO 282123Z 07009KT CAVOK 14/03 Q1030 NOSIG RMK BLU BLU
EGKA - Shoreham Airport, United Kingdom
Distance from station: E 37mi, 59km
Updated: 28-May-2020 17:50:00
NOT Current
Clear
Clear
 Wind from NE
Wind: NE 14 mph , 22 km/h
Temperature: 21°C
Dew Point: 4°C
Humidity: 33%
Barometer: 1030 hPa
Summary: Clear
Visibility: greater than 7 miles , 10 km
2020/05/28 16:50 EGKA 281650Z 05012KT CAVOK 21/04 Q1030
EGDM - Boscombe Down, United Kingdom
Distance from station: NW 38mi, 61km
Updated: 28-May-2020 21:50:00
Clear
Clear
 Wind from E
Wind: E 9 mph , 15 km/h
Temperature: 14°C
Dew Point: 3°C
Humidity: 48%
Barometer: 1030 hPa
Clouds: Clear
2020/05/28 20:50 EGDM 282050Z AUTO 08008KT //// NCD 14/03 Q1030
 
EGLF - Farnborough, United Kingdom
Distance from station: NNE 38mi, 61km
Updated: 28-May-2020 22:20:00
Clear
Clear
 Wind from E
Wind: E 12 mph , 19 km/h
Temperature: 14°C
Dew Point: 3°C
Humidity: 48%
Barometer: 1031 hPa
Clouds: Clear
Visibility: 6 miles , 10 km
2020/05/28 21:20 EGLF 282120Z AUTO 09010KT 9999 NCD 14/03 Q1031
EGKK - Gatwick Airport, United Kingdom
Distance from station: ENE 49mi, 78km
Updated: 28-May-2020 22:20:00
Clear
Clear
 Wind from ENE
Wind: ENE 8 mph , 13 km/h
Temperature: 12°C
Dew Point: 7°C
Humidity: 72%
Barometer: 1031 hPa
Summary: Clear
Visibility: greater than 7 miles , 10 km
2020/05/28 21:20 EGKK 282120Z 06007KT CAVOK 12/07 Q1031
EGLL - Heathrow Airport, United Kingdom
Distance from station: NNE 57mi, 91km
Updated: 28-May-2020 22:20:00
Clear
Clear
 Wind from E
Wind: E 8 mph , 13 km/h
Temperature: 14°C
Dew Point: 3°C
Humidity: 48%
Barometer: 1031 hPa
Clouds: Clear
Visibility: 6 miles , 10 km
2020/05/28 21:20 EGLL 282120Z AUTO 09007KT 9999 NCD 14/03 Q1031 NOSIG
 
EGUB - RAF Benson, United Kingdom
Distance from station: N 58mi, 93km
Updated: 28-May-2020 22:20:00
Clear
Clear
 Wind from E
Wind: E 7 mph , 11 km/h
Temperature: 13°C
Dew Point: 3°C
Humidity: 51%
Barometer: 1031 hPa
Summary: Clear
Visibility: greater than 7 miles , 10 km
2020/05/28 21:20 EGUB 282120Z 08006KT CAVOK 13/03 Q1031 NOSIG RMK BLU BLU
EGWU - RAF Northolt, United Kingdom
Distance from station: NNE 62mi, 99km
Updated: 28-May-2020 22:21:00
Clear
Clear
 Wind from E
Wind: E 13 mph , 20 km/h
Temperature: 15°C
Dew Point: 4°C
Humidity: 48%
Barometer: 1031 hPa
Summary: Clear
Visibility: greater than 7 miles , 10 km
2020/05/28 21:21 EGWU 282121Z 10011KT CAVOK 15/04 Q1031 NOSIG RMK BLU BLU
EGKB - Biggin Hill Airport, United Kingdom
Distance from station: NE 62mi, 100km
Updated: 28-May-2020 22:20:00
Clear
Clear
 Wind from E
Wind: E 7 mph , 11 km/h
Temperature: 10°C
Wind Chill: 8°C
Dew Point: 7°C
Humidity: 82%
Barometer: 1031 hPa
Summary: Clear
Visibility: greater than 7 miles , 10 km
2020/05/28 21:20 EGKB 282120Z 08006KT CAVOK 10/07 Q1031
 
EGDY - RNAS Yeovilton, United Kingdom
Distance from station: WNW 66mi, 107km
Updated: 28-May-2020 22:18:00
Clear
Clear
 Wind from E
Wind: E 6 mph , 9 km/h
Temperature: 15°C
Dew Point: 6°C
Humidity: 55%
Barometer: 1029 hPa
Summary: Clear
Visibility: greater than 7 miles , 10 km
2020/05/28 21:18 EGDY 282118Z 09005KT CAVOK 15/06 Q1029 NOSIG RMK BLU BLU
EGUO - Colerne Airfield, United Kingdom
Distance from station: NW 67mi, 108km
Updated: 14-Feb-2019 22:50:00
NOT Current
Clear
Clear
 Wind from ENE
Wind: ENE 1 mph , 2 km/h
Temperature: 1°C
Dew Point: 0°C
Humidity: 93%
Barometer: 1029 hPa
Summary: Clear
Visibility: greater than 7 miles , 10 km
2019/02/14 22:50 EGUO 142250Z 06001KT CAVOK 01/00 Q1029 BLU NOSIG
EGVA - RAF Fairford, United Kingdom
Distance from station: NNW 67mi, 108km
Updated: 28-May-2020 21:56:00
Clear
Clear
 Wind from E
Wind: E 7 mph , 11 km/h
Temperature: 15°C
Dew Point: 4°C
Humidity: 48%
Barometer: 1030.1 hPa
Clouds: Clear
Visibility: 6 miles , 10 km
2020/05/28 20:56 EGVA 282056Z AUTO 09006KT 9999 CLR 15/04 A3042 RMK AO2 SLP303 T01480039 52005 $
 
EGVN - RAF Brize Norton, United Kingdom
Distance from station: NNW 71mi, 114km
Updated: 28-May-2020 22:20:00
Clear
Clear
 Wind from ESE
Wind: ESE 7 mph , 11 km/h
Temperature: 15°C
Dew Point: 4°C
Humidity: 48%
Barometer: 1030 hPa
Summary: Clear
Visibility: greater than 7 miles , 10 km
2020/05/28 21:20 EGVN 282120Z 11006KT CAVOK 15/04 Q1030 NOSIG RMK BLU BLU
EGLC - London City Airport, United Kingdom
Distance from station: NE 71mi, 115km
Updated: 28-May-2020 22:20:00
Clear
Clear
 Wind from ENE
Wind: ENE 10 mph , 17 km/h
Temperature: 15°C
Dew Point: 8°C
Humidity: 63%
Barometer: 1031 hPa
Clouds: Clear
Visibility: 6 miles , 10 km
2020/05/28 21:20 EGLC 282120Z AUTO 07009KT 9999 NCD 15/08 Q1031
EGGD - Bristol Airport, United Kingdom
Distance from station: WNW 80mi, 128km
Updated: 28-May-2020 22:20:00
Clear
Clear
 Wind from E
Wind: E 9 mph , 15 km/h
Temperature: 16°C
Dew Point: 4°C
Humidity: 45%
Barometer: 1030 hPa
Clouds: Clear
Visibility: 6 miles , 10 km
2020/05/28 21:20 EGGD 282120Z AUTO 10008KT 9999 NCD 16/04 Q1030
 
LFRC - Cherbourg-Maupertus Airport, France
Distance from station: S 81mi, 130km
Updated: 28-May-2020 22:30:00
Clear
Clear
 Wind from ENE
Wind: ENE 16 mph , 26 km/h
Temperature: 12°C
Dew Point: 9°C
Humidity: 82%
Barometer: 1028 hPa
Summary: Clear
Visibility: greater than 7 miles , 10 km
2020/05/28 21:30 LFRC 282130Z AUTO 07014KT CAVOK 12/09 Q1028
EGGW - Luton Airport, United Kingdom
Distance from station: NNE 82mi, 132km
Updated: 28-May-2020 22:20:00
Clear
Clear
 Wind from ESE
Wind: ESE 7 mph , 11 km/h
Temperature: 12°C
Dew Point: 4°C
Humidity: 58%
Barometer: 1032 hPa
Clouds: Clear
Visibility: 6 miles , 10 km
2020/05/28 21:20 EGGW 282120Z AUTO 12006KT 9999 NCD 12/04 Q1032